createdAt,value
2023-05-04T00:02:30.705Z,13.00
2023-05-04T00:07:32.175Z,12.95
2023-05-04T00:12:33.660Z,12.98
2023-05-04T00:17:35.210Z,12.45
2023-05-04T00:22:36.649Z,12.80
2023-05-04T00:27:38.112Z,13.07
2023-05-04T00:32:39.600Z,12.30
2023-05-04T00:37:41.176Z,12.70
2023-05-04T00:42:42.585Z,12.73
2023-05-04T00:47:44.405Z,12.15
2023-05-04T00:52:48.637Z,12.60
2023-05-04T00:57:50.799Z,12.50
2023-05-04T01:02:52.353Z,12.02
2023-05-04T01:08:31.720Z,12.63
2023-05-04T01:13:35.229Z,12.35
2023-05-04T01:18:36.645Z,11.65
2023-05-04T01:23:38.167Z,12.23
2023-05-04T01:28:49.199Z,11.95
2023-05-04T01:33:52.888Z,12.07
2023-05-04T01:38:55.436Z,11.88
2023-05-04T01:43:57.567Z,11.70
2023-05-04T01:48:59.055Z,11.65
2023-05-04T01:54:00.765Z,12.63
2023-05-04T01:59:02.162Z,12.10
2023-05-04T02:04:03.814Z,12.23
2023-05-04T02:09:05.662Z,11.60
2023-05-04T02:14:07.078Z,11.18
2023-05-04T02:19:08.630Z,12.45
2023-05-04T02:24:10.118Z,11.57
2023-05-04T02:29:11.765Z,12.00
2023-05-04T02:34:13.248Z,11.70
2023-05-04T02:39:14.878Z,11.93
2023-05-04T02:44:16.285Z,10.63
2023-05-04T02:49:17.753Z,10.68
2023-05-04T02:54:19.224Z,11.25
2023-05-04T02:59:20.773Z,11.13
2023-05-04T03:04:22.267Z,11.20
2023-05-04T03:09:23.760Z,10.80
2023-05-04T03:14:25.199Z,11.93
2023-05-04T03:19:26.788Z,10.65
2023-05-04T03:24:28.223Z,10.63
2023-05-04T03:29:29.662Z,10.02
2023-05-04T03:34:31.486Z,11.13
2023-05-04T03:39:32.898Z,11.35
2023-05-04T03:44:34.300Z,11.40
2023-05-04T03:49:35.786Z,11.82
2023-05-04T03:54:37.293Z,10.65
2023-05-04T03:59:38.766Z,10.73
2023-05-04T04:04:40.277Z,11.13
2023-05-04T04:09:41.697Z,10.55
2023-05-04T04:14:43.107Z,10.23
2023-05-04T04:19:44.830Z,10.63
2023-05-04T04:24:46.262Z,11.40
2023-05-04T04:29:47.721Z,11.10
2023-05-04T04:34:49.131Z,11.38
2023-05-04T04:39:50.672Z,12.20
2023-05-04T04:44:52.387Z,12.23
2023-05-04T04:49:53.984Z,13.07
2023-05-04T04:54:55.405Z,15.25
2023-05-04T04:59:57.374Z,14.43
2023-05-04T05:04:58.940Z,12.93
2023-05-04T05:10:00.698Z,10.65
2023-05-04T05:15:04.338Z,11.27
2023-05-04T05:20:12.512Z,11.15
2023-05-04T05:25:14.471Z,11.57
2023-05-04T05:30:16.158Z,10.38
2023-05-04T05:35:17.620Z,9.93
2023-05-04T05:40:19.278Z,9.98
2023-05-04T05:45:20.696Z,10.00
2023-05-04T05:50:23.515Z,10.77
2023-05-04T05:55:24.989Z,10.60
2023-05-04T06:00:26.453Z,10.05
2023-05-04T06:05:27.882Z,9.63
2023-05-04T06:10:29.369Z,9.15
2023-05-04T06:15:30.923Z,9.40
2023-05-04T06:20:32.493Z,9.07
2023-05-04T06:25:33.918Z,8.40
2023-05-04T06:30:36.570Z,7.88
2023-05-04T06:35:38.023Z,8.65
2023-05-04T06:40:39.502Z,8.73
2023-05-04T06:45:41.100Z,9.77
2023-05-04T06:50:42.697Z,8.25
2023-05-04T06:55:44.184Z,8.80
2023-05-04T07:00:46.088Z,8.63
2023-05-04T07:05:48.892Z,8.35
2023-05-04T07:10:50.310Z,7.28
2023-05-04T07:15:51.843Z,7.53
2023-05-04T07:21:01.561Z,6.53
2023-05-04T07:26:08.378Z,6.03
2023-05-04T07:31:12.819Z,5.68
2023-05-04T07:36:14.306Z,6.22
2023-05-04T07:41:15.749Z,5.72
2023-05-04T07:46:17.250Z,4.22
2023-05-04T07:51:18.708Z,5.25
2023-05-04T07:56:20.168Z,4.78
2023-05-04T08:01:21.729Z,4.75
2023-05-04T08:06:23.257Z,3.60
2023-05-04T08:11:24.677Z,3.00
2023-05-04T08:16:26.381Z,3.17
2023-05-04T08:21:28.306Z,3.10
2023-05-04T08:26:31.042Z,2.42
2023-05-04T08:31:32.641Z,3.13
2023-05-04T08:36:34.978Z,2.95
2023-05-04T08:41:40.962Z,3.10
2023-05-04T08:46:43.335Z,3.20
2023-05-04T08:51:46.279Z,3.40
2023-05-04T08:56:50.125Z,3.55
2023-05-04T09:01:58.647Z,4.60
2023-05-04T09:07:00.175Z,4.30
2023-05-04T09:12:01.608Z,3.80
2023-05-04T09:17:12.329Z,3.28
2023-05-04T09:22:15.501Z,3.47
2023-05-04T09:27:19.915Z,3.90
2023-05-04T09:32:21.425Z,3.38
2023-05-04T09:37:22.973Z,4.28
2023-05-04T09:42:25.567Z,4.55
2023-05-04T09:47:38.390Z,4.57
2023-05-04T09:52:41.621Z,4.68
2023-05-04T09:57:44.777Z,4.22
2023-05-04T10:02:47.707Z,4.32
2023-05-04T10:07:49.973Z,4.07
2023-05-04T10:12:51.550Z,4.55
2023-05-04T10:18:21.139Z,3.53
2023-05-04T10:23:41.512Z,3.00
2023-05-04T10:29:13.106Z,2.78
2023-05-04T10:34:25.060Z,3.03
2023-05-04T10:39:31.061Z,2.80
2023-05-04T10:44:37.596Z,3.03
2023-05-04T10:49:39.135Z,3.17
2023-05-04T10:54:41.752Z,2.40
2023-05-04T10:59:56.452Z,2.97
2023-05-04T11:05:01.346Z,2.78
2023-05-04T11:10:04.446Z,3.33
2023-05-04T11:15:07.904Z,3.05
2023-05-04T11:20:10.606Z,2.83
2023-05-04T11:25:12.152Z,2.90
2023-05-04T11:30:13.999Z,3.00
2023-05-04T11:35:18.612Z,3.42
2023-05-04T11:40:23.709Z,3.13
2023-05-04T11:45:29.823Z,3.55
2023-05-04T11:50:31.783Z,3.28
2023-05-04T11:55:33.460Z,3.20
2023-05-04T12:00:49.636Z,2.60
2023-05-04T12:05:53.797Z,3.20
2023-05-04T12:11:56.512Z,2.75
2023-05-04T12:17:01.734Z,3.05
2023-05-04T12:22:05.083Z,2.63
2023-05-04T12:27:12.868Z,2.70
2023-05-04T12:32:14.533Z,2.65
2023-05-04T12:37:16.156Z,2.75
2023-05-04T12:42:17.598Z,2.85
2023-05-04T12:47:20.919Z,3.00
2023-05-04T12:52:22.886Z,2.92
2023-05-04T12:57:24.411Z,2.80
2023-05-04T13:02:25.878Z,3.92
2023-05-04T13:07:27.397Z,3.63
2023-05-04T13:12:28.853Z,3.38
2023-05-04T13:17:33.747Z,3.40
2023-05-04T13:22:36.420Z,3.85
2023-05-04T13:27:38.125Z,3.17
2023-05-04T13:32:39.962Z,2.40
2023-05-04T13:37:42.242Z,2.78
2023-05-04T13:42:43.712Z,2.63
2023-05-04T13:47:45.436Z,2.60
2023-05-04T13:52:46.900Z,2.38
2023-05-04T13:57:48.788Z,2.50
2023-05-04T14:02:50.581Z,2.30
2023-05-04T14:07:52.855Z,2.50
2023-05-04T14:12:54.325Z,2.70
2023-05-04T14:17:55.837Z,2.47
2023-05-04T14:22:57.287Z,2.85
2023-05-04T14:27:58.719Z,2.25
2023-05-04T14:33:00.311Z,2.50
2023-05-04T14:38:01.805Z,2.63
2023-05-04T14:43:03.463Z,2.90
2023-05-04T14:48:05.434Z,2.78
2023-05-04T14:53:08.264Z,2.30
2023-05-04T14:58:09.967Z,2.80
2023-05-04T15:03:11.632Z,2.78
2023-05-04T15:08:13.165Z,2.38
2023-05-04T15:13:15.895Z,2.35
2023-05-04T15:18:17.639Z,2.40
2023-05-04T15:23:19.083Z,2.13
2023-05-04T15:28:22.836Z,2.20
2023-05-04T15:33:24.328Z,2.35
2023-05-04T15:38:28.549Z,2.40
2023-05-04T15:43:30.025Z,2.33
2023-05-04T15:48:31.429Z,2.55
2023-05-04T15:53:33.202Z,2.72
2023-05-04T15:58:34.641Z,2.88
2023-05-04T16:03:36.182Z,2.60
2023-05-04T16:08:37.700Z,2.40
2023-05-04T16:13:39.173Z,2.67
2023-05-04T16:18:40.697Z,2.50
2023-05-04T16:23:42.275Z,2.40
2023-05-04T16:28:45.206Z,2.40
2023-05-04T16:33:47.863Z,2.47
2023-05-04T16:38:49.384Z,2.50
2023-05-04T16:43:51.682Z,2.63
2023-05-04T16:48:54.472Z,2.70
2023-05-04T16:53:55.982Z,2.47
2023-05-04T16:58:57.499Z,2.60
2023-05-04T17:03:59.243Z,2.63
2023-05-04T17:09:01.000Z,2.50
2023-05-04T17:14:03.561Z,2.08
2023-05-04T17:19:05.003Z,2.22
2023-05-04T17:24:06.479Z,2.80
2023-05-04T17:29:08.073Z,2.90
2023-05-04T17:34:09.554Z,3.35
2023-05-04T17:39:11.208Z,2.78
2023-05-04T17:44:12.633Z,2.58
2023-05-04T17:49:14.113Z,2.40
2023-05-04T17:54:16.283Z,2.50
2023-05-04T17:59:17.819Z,2.63
2023-05-04T18:04:19.250Z,2.78
2023-05-04T18:09:20.729Z,2.78
2023-05-04T18:14:22.174Z,2.92
2023-05-04T18:19:27.794Z,2.65
2023-05-04T18:24:30.000Z,3.17
2023-05-04T18:29:32.405Z,2.75
2023-05-04T18:34:34.314Z,2.78
2023-05-04T18:39:37.973Z,3.33
2023-05-04T18:44:39.546Z,3.78
2023-05-04T18:49:41.304Z,3.63
2023-05-04T18:54:42.731Z,3.20
2023-05-04T18:59:44.151Z,3.22
2023-05-04T19:04:47.163Z,3.08
2023-05-04T19:09:48.752Z,3.80
2023-05-04T19:14:51.153Z,4.32
2023-05-04T19:19:52.693Z,4.10
2023-05-04T19:24:55.466Z,3.80
2023-05-04T19:29:56.911Z,3.58
2023-05-04T19:34:58.412Z,3.40
2023-05-04T19:39:59.864Z,3.72
2023-05-04T19:45:01.289Z,4.15
2023-05-04T19:50:03.002Z,4.38
2023-05-04T19:55:06.163Z,4.50
2023-05-04T20:00:10.020Z,4.72
2023-05-04T20:05:12.257Z,5.90
2023-05-04T20:10:13.740Z,5.60
2023-05-04T20:15:15.780Z,5.60
2023-05-04T20:20:20.270Z,4.85
2023-05-04T20:25:22.832Z,5.10
2023-05-04T20:30:28.016Z,5.10
2023-05-04T20:35:29.441Z,5.13
2023-05-04T20:40:30.869Z,5.22
2023-05-04T20:45:32.644Z,5.55
2023-05-04T20:50:34.204Z,5.85
2023-05-04T20:55:36.036Z,5.90
2023-05-04T21:00:37.465Z,6.43
2023-05-04T21:05:39.682Z,6.32
2023-05-04T21:10:41.335Z,6.78
2023-05-04T21:15:42.850Z,7.68
2023-05-04T21:20:44.305Z,7.00
2023-05-04T21:25:45.734Z,6.85
2023-05-04T21:30:47.140Z,9.02
2023-05-04T21:35:48.787Z,8.57
2023-05-04T21:40:50.598Z,10.05
2023-05-04T21:45:52.024Z,9.02
2023-05-04T21:50:53.452Z,8.25
2023-05-04T21:55:54.863Z,7.60
2023-05-04T22:00:56.458Z,7.68
2023-05-04T22:05:58.083Z,7.72
2023-05-04T22:10:59.613Z,7.82
2023-05-04T22:16:01.072Z,6.40
2023-05-04T22:21:02.497Z,6.97
2023-05-04T22:26:04.077Z,7.00
2023-05-04T22:31:05.623Z,8.70
2023-05-04T22:36:07.489Z,10.57
2023-05-04T22:41:08.949Z,10.43
2023-05-04T22:46:19.235Z,11.13
2023-05-04T22:51:20.756Z,10.60
2023-05-04T22:56:22.256Z,10.98
2023-05-04T23:01:23.814Z,11.38
2023-05-04T23:06:25.290Z,11.07
2023-05-04T23:11:26.744Z,10.93
2023-05-04T23:16:28.271Z,11.50
2023-05-04T23:21:29.926Z,10.82
2023-05-04T23:26:31.598Z,10.95
2023-05-04T23:31:33.098Z,10.98
2023-05-04T23:36:34.538Z,10.85
2023-05-04T23:41:35.956Z,10.95
2023-05-04T23:46:37.429Z,11.00
2023-05-04T23:51:38.844Z,12.07
2023-05-04T23:56:40.325Z,11.90
